Time;durP1;ratioP1;P1;durP2;ratioP2;P2;SDS_P1;SDS_P2;PMS_P1;PMS_P2;Temp;Humidity;BMP_temperature;BMP_pressure;BME280_temperature;BME280_humidity;BME280_pressure;Samples;Min_cycle;Max_cycle;Signal;HPM_P1;HPM_P2
2023/10/08 00:01:29;;;;;;;8.02;4.20;;;;;;;10.90;61.87;99636.53;6209206;23;20427;-91
2023/10/08 00:04:00;;;;;;;8.20;4.15;;;;;;;10.95;62.23;99641.13;6222534;23;20039;-89
2023/10/08 00:06:26;;;;;;;9.93;4.30;;;;;;;11.02;62.15;99649.78;6200465;23;20008;-90
2023/10/08 00:08:53;;;;;;;9.38;4.25;;;;;;;10.91;62.11;99630.09;6197380;23;20008;-90
2023/10/08 00:11:22;;;;;;;11.75;4.35;;;;;;;10.88;62.42;99625.22;6197061;23;20024;-90
2023/10/08 00:13:48;;;;;;;7.55;4.25;;;;;;;10.68;62.94;99609.78;6198408;23;20004;-90
2023/10/08 00:16:17;;;;;;;10.43;4.57;;;;;;;10.67;63.02;99627.00;6198244;23;20034;-91
2023/10/08 00:18:48;;;;;;;9.52;4.22;;;;;;;10.56;63.21;99611.88;6199332;23;19996;-91
2023/10/08 00:23:44;;;;;;;8.27;4.00;;;;;;;10.54;63.41;99600.56;6250084;23;20365;-91
2023/10/08 00:26:09;;;;;;;7.60;3.90;;;;;;;10.55;63.41;99607.56;6173955;23;20000;-90
2023/10/08 00:28:35;;;;;;;11.10;3.78;;;;;;;10.63;63.63;99617.03;6198517;23;20007;-92
2023/10/08 00:31:11;;;;;;;8.77;4.45;;;;;;;10.65;63.58;99623.78;6197989;23;20415;-90
2023/10/08 00:33:37;;;;;;;9.60;4.35;;;;;;;10.51;63.53;99603.78;6222353;23;20008;-91
2023/10/08 00:36:17;;;;;;;9.15;4.20;;;;;;;10.44;63.26;99592.47;6223990;23;20403;-91
2023/10/08 00:38:46;;;;;;;10.35;4.20;;;;;;;10.57;63.23;99601.94;6201991;23;20011;-91
2023/10/08 00:41:15;;;;;;;7.78;3.78;;;;;;;10.59;63.50;99613.25;6199448;23;20000;-90
2023/10/08 00:43:40;;;;;;;16.38;4.80;;;;;;;10.50;63.84;99597.59;6199386;23;20423;-92
2023/10/08 00:48:56;;;;;;;8.63;3.67;;;;;;;10.43;64.01;99606.97;6195646;23;20026;-90
2023/10/08 00:53:57;;;;;;;6.18;3.50;;;;;;;10.30;64.08;99605.56;6198924;23;20386;-92
2023/10/08 00:56:25;;;;;;;10.27;4.05;;;;;;;10.07;64.46;99585.22;6200274;23;20398;-90
2023/10/08 00:58:53;;;;;;;6.38;4.20;;;;;;;10.15;64.51;99600.03;6198402;23;20447;-90
2023/10/08 01:01:24;;;;;;;9.68;4.15;;;;;;;10.11;64.65;99594.41;6223213;23;20027;-90
2023/10/08 01:03:49;;;;;;;9.48;3.80;;;;;;;10.00;64.87;99585.44;6225396;23;20053;-90
2023/10/08 01:06:18;;;;;;;7.47;4.30;;;;;;;9.97;64.87;99580.56;6222452;23;20004;-90
2023/10/08 01:08:52;;;;;;;13.63;4.70;;;;;;;9.92;64.95;99577.88;6198765;23;20338;-90
2023/10/08 01:11:46;;;;;;;10.65;4.50;;;;;;;9.87;64.47;99567.88;6224108;23;19996;-91
2023/10/08 01:14:11;;;;;;;9.10;4.18;;;;;;;9.91;64.39;99574.34;6223087;23;20061;-91
2023/10/08 01:16:39;;;;;;;8.65;4.18;;;;;;;10.02;64.71;99569.88;6198523;23;20442;-92
2023/10/08 01:19:05;;;;;;;8.32;4.50;;;;;;;10.00;64.62;99558.56;6198748;23;20004;-90
2023/10/08 01:21:39;;;;;;;9.40;4.60;;;;;;;10.01;64.55;99551.28;6199378;23;20000;-90
2023/10/08 01:24:07;;;;;;;7.15;4.40;;;;;;;10.10;64.68;99577.41;6178376;23;20008;-90
2023/10/08 01:26:34;;;;;;;9.38;3.95;;;;;;;10.06;64.85;99575.50;6173937;23;20054;-90
2023/10/08 01:29:06;;;;;;;10.30;4.68;;;;;;;10.13;64.87;99581.50;6199837;23;20414;-88
2023/10/08 01:31:33;;;;;;;11.25;4.90;;;;;;;9.96;64.76;99560.16;6176824;23;19992;-90
2023/10/08 01:34:00;;;;;;;8.27;3.90;;;;;;;10.11;64.63;99578.25;6175292;23;20000;-91
2023/10/08 01:36:25;;;;;;;8.20;4.03;;;;;;;9.97;64.46;99555.56;6175943;23;20000;-92
2023/10/08 01:38:51;;;;;;;10.15;5.22;;;;;;;9.99;64.70;99570.38;6173924;23;20343;-92
2023/10/08 01:41:20;;;;;;;11.32;4.85;;;;;;;10.11;65.10;99589.81;6175158;23;20446;-94
2023/10/08 01:43:46;;;;;;;9.68;5.20;;;;;;;9.93;65.07;99566.03;6200227;23;20035;-92
2023/10/08 01:46:12;;;;;;;9.23;4.32;;;;;;;10.06;65.09;99580.91;6199649;23;20004;-92
2023/10/08 01:48:43;;;;;;;9.23;4.32;;;;;;;10.00;65.07;99582.75;6175226;23;20435;-92
2023/10/08 01:51:24;;;;;;;9.55;4.38;;;;;;;9.87;65.44;99575.94;6176242;23;20000;-93
2023/10/08 01:53:53;;;;;;;8.73;3.75;;;;;;;9.82;65.57;99580.50;6181947;23;20016;-91
2023/10/08 01:56:19;;;;;;;8.30;4.10;;;;;;;9.68;65.76;99567.47;6200190;23;20031;-92
2023/10/08 01:58:46;;;;;;;6.93;4.22;;;;;;;9.68;65.99;99569.34;6175755;23;20435;-92
2023/10/08 02:01:12;;;;;;;9.70;4.28;;;;;;;9.61;66.30;99566.09;6175371;23;20317;-91
2023/10/08 02:03:38;;;;;;;8.05;4.22;;;;;;;9.50;66.52;99551.72;6175362;23;20004;-91
2023/10/08 02:06:06;;;;;;;9.43;4.32;;;;;;;9.60;66.11;99559.88;6175132;23;19995;-93
2023/10/08 02:08:31;;;;;;;8.18;4.25;;;;;;;9.55;66.47;99556.34;6200852;23;19992;-92
2023/10/08 02:10:57;;;;;;;8.30;4.15;;;;;;;9.61;66.43;99568.78;6175783;23;20011;-92
2023/10/08 02:13:22;;;;;;;8.98;4.57;;;;;;;9.54;66.36;99546.66;6174304;23;20026;-93
2023/10/08 02:15:53;;;;;;;10.52;4.95;;;;;;;9.50;66.55;99549.88;6174760;23;19996;-95
2023/10/08 02:18:19;;;;;;;14.38;6.13;;;;;;;9.42;66.83;99552.19;6200145;23;20349;-94
2023/10/08 02:20:45;;;;;;;10.98;5.07;;;;;;;9.31;66.75;99532.50;6173666;23;20035;-93
2023/10/08 02:23:13;;;;;;;11.77;4.88;;;;;;;9.28;66.93;99533.84;6199680;23;20004;-94
2023/10/08 02:25:40;;;;;;;8.25;4.68;;;;;;;9.30;67.00;99533.59;6175014;23;20387;-93
2023/10/08 02:28:08;;;;;;;9.13;4.30;;;;;;;9.28;67.37;99539.19;6200381;23;20158;-93
2023/10/08 02:30:34;;;;;;;6.95;4.35;;;;;;;9.16;67.00;99530.50;6175715;23;20000;-92
2023/10/08 02:33:00;;;;;;;8.77;3.97;;;;;;;9.16;67.31;99540.44;6173593;23;20000;-92
2023/10/08 02:35:27;;;;;;;7.55;4.13;;;;;;;9.16;67.13;99541.25;6175737;23;20077;-92
2023/10/08 02:37:54;;;;;;;7.82;4.15;;;;;;;9.18;67.02;99541.78;6199407;23;19996;-92
2023/10/08 02:40:26;;;;;;;12.88;4.50;;;;;;;9.00;67.10;99518.78;6175570;23;20038;-94
2023/10/08 02:42:57;;;;;;;7.53;4.55;;;;;;;9.19;67.32;99535.34;6225925;23;20009;-93
2023/10/08 02:45:26;;;;;;;7.20;4.30;;;;;;;9.14;67.21;99527.25;6201950;23;20016;-93
2023/10/08 02:47:52;;;;;;;7.13;4.10;;;;;;;9.25;67.24;99539.69;6199854;23;20008;-93
2023/10/08 02:50:21;;;;;;;7.28;3.75;;;;;;;9.26;67.38;99546.72;6175755;23;20007;-93
2023/10/08 02:52:49;;;;;;;8.30;4.13;;;;;;;9.26;67.11;99524.41;6199960;23;19997;-93
2023/10/08 02:55:28;;;;;;;8.07;4.15;;;;;;;9.32;67.08;99536.81;6175747;23;20022;-93
2023/10/08 02:57:53;;;;;;;8.98;4.60;;;;;;;9.45;66.88;99540.94;6179197;23;20012;-93
2023/10/08 03:00:20;;;;;;;8.02;5.18;;;;;;;9.39;66.56;99529.34;6174417;23;20007;-91
2023/10/08 03:02:46;;;;;;;6.45;3.70;;;;;;;9.44;66.72;99532.09;6202958;23;20004;-92
2023/10/08 03:05:13;;;;;;;7.97;3.90;;;;;;;9.54;66.52;99538.59;6199966;23;19988;-92
2023/10/08 03:07:39;;;;;;;8.90;4.25;;;;;;;9.55;65.99;99526.78;6198249;23;20062;-92
2023/10/08 03:10:32;;;;;;;8.30;4.20;;;;;;;9.64;66.35;99538.66;6174764;23;20087;-95
2023/10/08 03:12:54;;;;;;;9.02;4.18;;;;;;;9.52;66.58;99528.09;6208491;23;19988;-92
2023/10/08 03:15:30;;;;;;;13.05;4.45;;;;;;;9.54;66.90;99527.84;6173930;23;20004;-92
2023/10/08 03:17:57;;;;;;;7.63;4.07;;;;;;;9.44;66.66;99521.34;6178275;23;20030;-93
2023/10/08 03:20:29;;;;;;;7.35;3.90;;;;;;;9.42;67.09;99526.16;6175369;23;20028;-93
2023/10/08 03:22:57;;;;;;;7.82;4.15;;;;;;;9.28;67.65;99504.28;6177334;23;20358;-93
2023/10/08 03:25:24;;;;;;;9.05;3.75;;;;;;;9.24;67.21;99500.47;6199380;23;20052;-93
2023/10/08 03:27:50;;;;;;;6.72;4.13;;;;;;;9.31;67.40;99519.06;6198972;23;20012;-92
2023/10/08 03:30:15;;;;;;;7.90;4.43;;;;;;;9.22;67.21;99502.59;6173973;23;20371;-93
2023/10/08 03:32:56;;;;;;;10.15;4.35;;;;;;;9.35;67.12;99519.38;6174254;23;20465;-93
2023/10/08 03:35:27;;;;;;;9.07;4.10;;;;;;;9.17;67.41;99499.91;6179142;23;20071;-94
2023/10/08 03:37:54;;;;;;;8.13;4.57;;;;;;;9.16;67.83;99503.63;6176530;23;20056;-93
2023/10/08 03:42:49;;;;;;;10.20;4.45;;;;;;;9.24;67.39;99510.41;6199558;23;20077;-93
2023/10/08 03:45:22;;;;;;;7.65;4.28;;;;;;;9.26;67.02;99503.72;6174046;23;20004;-93
2023/10/08 03:47:58;;;;;;;10.00;3.90;;;;;;;9.18;67.47;99501.50;6201294;23;20012;-93
2023/10/08 03:50:32;;;;;;;10.82;3.88;;;;;;;9.29;67.40;99508.56;6179120;23;20028;-92
2023/10/08 03:52:58;;;;;;;10.27;3.88;;;;;;;9.33;67.22;99505.38;6171975;23;20024;-91
2023/10/08 03:55:26;;;;;;;7.18;4.50;;;;;;;9.60;66.45;99526.81;6143537;23;20513;-94
2023/10/08 03:57:58;;;;;;;10.80;4.45;;;;;;;9.71;66.28;99513.19;6146643;23;20027;-94
2023/10/08 04:00:31;;;;;;;7.15;4.05;;;;;;;9.78;65.46;99493.34;6146087;23;20014;-92
2023/10/08 04:03:07;;;;;;;11.90;4.80;;;;;;;9.91;65.28;99496.34;6170161;23;19995;-90
2023/10/08 04:05:44;;;;;;;8.93;4.82;;;;;;;9.94;65.28;99492.34;6195110;23;20001;-91
2023/10/08 04:08:42;;;;;;;8.40;4.35;;;;;;;9.74;65.85;99490.34;6147998;23;20164;-90
2023/10/08 04:11:51;;;;;;;8.52;4.60;;;;;;;9.68;65.89;99502.13;6181319;23;20004;-91
2023/10/08 04:14:02;;;;;;;14.27;4.38;;;;;;;9.65;66.33;99502.63;6173103;23;20043;-92
2023/10/08 04:16:28;;;;;;;6.65;4.15;;;;;;;9.45;66.24;99482.63;6192814;23;20071;-91
2023/10/08 04:18:55;;;;;;;7.78;4.30;;;;;;;9.46;66.86;99486.94;6167951;23;19997;-92
2023/10/08 04:21:22;;;;;;;9.50;4.80;;;;;;;9.58;67.21;99502.06;6143816;23;20090;-91
2023/10/08 04:23:51;;;;;;;6.50;4.07;;;;;;;9.39;67.09;99488.22;6144490;23;20019;-91
2023/10/08 04:26:18;;;;;;;13.45;4.80;;;;;;;9.42;67.50;99493.91;6145367;23;20016;-89
2023/10/08 04:28:43;;;;;;;11.10;4.22;;;;;;;9.52;66.94;99495.84;6191972;23;20008;-91
2023/10/08 04:31:15;;;;;;;9.20;4.32;;;;;;;9.59;66.61;99492.94;6167993;23;19996;-91
2023/10/08 04:33:47;;;;;;;9.65;4.88;;;;;;;9.48;67.09;99492.88;6168655;23;20011;-91
2023/10/08 04:36:19;;;;;;;11.15;4.55;;;;;;;9.49;66.78;99482.94;6144102;23;20007;-91
2023/10/08 04:38:47;;;;;;;9.35;4.43;;;;;;;9.51;66.91;99489.66;6145430;23;20355;-91
2023/10/08 04:41:17;;;;;;;11.30;4.53;;;;;;;9.60;66.72;99486.50;6168623;23;20011;-90
2023/10/08 04:43:43;;;;;;;11.05;4.70;;;;;;;9.55;66.22;99467.66;6169238;23;19997;-91
2023/10/08 04:46:33;;;;;;;6.07;4.18;;;;;;;9.72;66.10;99479.03;6143858;23;20015;-91
2023/10/08 04:49:05;;;;;;;8.02;4.35;;;;;;;9.98;65.69;99500.69;6192707;23;20001;-91
2023/10/08 04:51:34;;;;;;;12.17;4.57;;;;;;;10.08;65.18;99495.34;6168975;23;20086;-91
2023/10/08 04:54:00;;;;;;;10.18;4.28;;;;;;;10.17;65.09;99493.81;6170942;23;20231;-91
2023/10/08 04:56:28;;;;;;;9.98;4.18;;;;;;;10.30;64.84;99500.59;6195271;23;19996;-90
2023/10/08 04:58:56;;;;;;;7.88;4.38;;;;;;;10.11;65.08;99466.06;6170410;23;20074;-91
2023/10/08 05:01:28;;;;;;;10.60;4.70;;;;;;;10.19;65.05;99480.06;6169525;23;20000;-91
2023/10/08 05:14:38;;;;;;;10.55;5.07;;;;;;;10.55;63.98;99448.72;6172823;23;20110;-90
2023/10/08 05:20:17;;;;;;;17.63;5.55;;;;;;;10.78;63.77;99455.50;6197720;23;20012;-91
2023/10/08 05:22:44;;;;;;;12.60;5.85;;;;;;;10.91;63.77;99473.84;6183478;23;20088;-92
2023/10/08 05:30:53;;;;;;;10.43;5.72;;;;;;;11.32;62.74;99484.59;6188788;23;20011;-91
2023/10/08 05:33:24;;;;;;;14.23;6.43;;;;;;;11.47;62.10;99466.78;6153187;23;20004;-89
2023/10/08 05:35:54;;;;;;;20.73;5.72;;;;;;;11.50;61.90;99458.19;6170191;23;20019;-89
2023/10/08 05:38:22;;;;;;;10.98;5.28;;;;;;;11.62;61.70;99458.69;6144841;23;20013;-91
2023/10/08 05:49:03;;;;;;;13.50;4.82;;;;;;;12.29;59.43;99485.50;6194389;23;20039;-91
2023/10/08 05:57:07;;;;;;;14.68;4.72;;;;;;;12.60;57.69;99480.75;6195674;23;20009;-93
2023/10/08 06:02:48;;;;;;;15.57;6.03;;;;;;;12.91;55.95;99475.94;6176873;23;20009;-91
2023/10/08 06:07:56;;;;;;;9.02;4.78;;;;;;;13.14;56.08;99476.31;6170665;23;20516;-91
2023/10/08 06:13:10;;;;;;;9.20;3.95;;;;;;;13.23;54.83;99438.66;6170086;23;20013;-92
2023/10/08 06:18:20;;;;;;;11.23;5.18;;;;;;;13.60;54.70;99438.06;6198402;23;20008;-91
2023/10/08 06:20:49;;;;;;;10.70;6.00;;;;;;;13.83;54.38;99455.38;6146514;23;20034;-91
2023/10/08 06:23:18;;;;;;;10.45;4.93;;;;;;;14.00;54.61;99454.13;6169770;23;19996;-93
2023/10/08 06:25:46;;;;;;;17.20;5.53;;;;;;;14.06;54.27;99445.66;6170333;23;20000;-92
2023/10/08 06:28:20;;;;;;;14.82;5.25;;;;;;;14.04;54.23;99415.34;6146394;23;20004;-93
2023/10/08 06:30:53;;;;;;;11.07;5.43;;;;;;;14.39;53.68;99443.06;6145880;23;20001;-93
2023/10/08 06:33:19;;;;;;;9.13;5.15;;;;;;;14.55;53.69;99435.53;6145424;23;20008;-93
2023/10/08 06:35:56;;;;;;;11.88;5.82;;;;;;;14.63;53.08;99413.22;6146290;23;20003;-94
2023/10/08 06:38:25;;;;;;;11.98;4.82;;;;;;;14.95;52.41;99436.84;6197648;23;20008;-93
2023/10/08 06:44:02;;;;;;;8.18;4.38;;;;;;;15.24;50.12;99411.41;6154406;23;20071;-92
2023/10/08 06:46:30;;;;;;;7.97;3.72;;;;;;;15.51;45.92;99424.22;6147109;23;20004;-93
2023/10/08 06:48:58;;;;;;;8.32;3.72;;;;;;;15.82;41.97;99431.81;6146822;23;20371;-91
2023/10/08 06:51:25;;;;;;;10.02;3.75;;;;;;;15.99;40.68;99412.19;6169019;23;20063;-93
2023/10/08 06:54:02;;;;;;;9.07;3.35;;;;;;;16.21;39.60;99414.16;6146905;23;20019;-92
2023/10/08 06:56:35;;;;;;;7.57;3.25;;;;;;;16.44;38.55;99389.75;6170033;23;19997;-91
2023/10/08 06:59:01;;;;;;;9.27;3.65;;;;;;;16.69;36.96;99397.31;6147827;23;20504;-92
2023/10/08 07:01:38;;;;;;;5.97;3.53;;;;;;;17.01;36.99;99414.50;6145658;23;20087;-95
2023/10/08 07:04:17;;;;;;;8.52;3.08;;;;;;;17.26;36.27;99406.81;6149758;23;20092;-92
2023/10/08 07:06:46;;;;;;;6.10;3.00;;;;;;;17.42;35.87;99405.31;6172582;23;20005;-92
2023/10/08 07:09:32;;;;;;;7.78;3.42;;;;;;;17.58;35.95;99401.06;6172121;23;20020;-92
2023/10/08 07:12:13;;;;;;;10.50;3.10;;;;;;;17.82;35.97;99399.06;6157557;23;20004;-92
2023/10/08 07:14:41;;;;;;;6.97;3.20;;;;;;;17.94;35.90;99388.38;6152204;23;19997;-91
2023/10/08 07:17:16;;;;;;;7.65;2.92;;;;;;;18.24;33.88;99413.09;6144927;23;20001;-94
2023/10/08 07:19:57;;;;;;;7.00;3.40;;;;;;;18.25;34.50;99387.47;6171843;23;19996;-93
2023/10/08 07:22:28;;;;;;;6.63;3.28;;;;;;;18.67;32.14;99407.69;6150445;23;20001;-92
2023/10/08 07:24:57;;;;;;;14.57;4.13;;;;;;;18.81;33.00;99409.50;6172055;23;20001;-94
2023/10/08 07:27:24;;;;;;;5.75;2.80;;;;;;;19.02;31.06;99390.50;6146328;23;20078;-93
2023/10/08 07:29:55;;;;;;;7.25;2.90;;;;;;;19.14;30.20;99375.06;6145871;23;19997;-92
2023/10/08 07:32:21;;;;;;;6.75;3.40;;;;;;;19.45;29.86;99376.72;6147591;23;19996;-92
2023/10/08 07:34:47;;;;;;;5.00;2.40;;;;;;;19.59;28.61;99369.13;6146413;23;20005;-93
2023/10/08 07:37:16;;;;;;;10.63;2.88;;;;;;;19.86;29.00;99379.94;6170788;23;20029;-91
2023/10/08 07:42:38;;;;;;;3.85;2.25;;;;;;;20.26;28.93;99396.72;6181767;23;20035;-93
2023/10/08 07:45:04;;;;;;;7.70;3.20;;;;;;;20.25;28.42;99361.50;6169736;23;20007;-92
2023/10/08 07:47:32;;;;;;;6.47;2.67;;;;;;;20.45;27.40;99362.66;6145693;23;20011;-92
2023/10/08 07:50:01;;;;;;;11.25;2.35;;;;;;;20.62;27.51;99356.25;6169774;23;20104;-91
2023/10/08 07:52:32;;;;;;;5.13;2.60;;;;;;;20.67;27.34;99340.44;6171272;23;20020;-92
2023/10/08 07:55:01;;;;;;;6.82;2.88;;;;;;;20.83;26.99;99334.31;6168716;23;20001;-92
2023/10/08 07:57:33;;;;;;;6.15;2.72;;;;;;;21.06;26.62;99351.94;6194989;23;20050;-92
2023/10/08 08:00:18;;;;;;;;;;;;;;;21.20;26.91;99354.34;6169936;23;20091;-92
2023/10/08 08:02:44;;;;;;;7.65;2.17;;;;;;;21.11;26.81;99309.84;6198848;23;19975;-93
2023/10/08 08:05:09;;;;;;;11.85;2.90;;;;;;;21.29;26.97;99330.41;6169256;23;20007;-93
2023/10/08 08:07:41;;;;;;;5.93;2.42;;;;;;;21.43;26.09;99340.25;6193794;23;20044;-92
2023/10/08 08:10:10;;;;;;;8.82;2.13;;;;;;;21.55;25.66;99327.34;6169187;23;20313;-92
2023/10/08 08:12:44;;;;;;;9.07;3.40;;;;;;;21.75;25.45;99336.59;6170770;23;20428;-91
2023/10/08 08:15:15;;;;;;;6.32;2.40;;;;;;;21.88;25.13;99331.09;6172601;23;20076;-91
2023/10/08 08:17:48;;;;;;;5.55;1.95;;;;;;;22.05;24.91;99328.09;6193621;23;20023;-91
2023/10/08 08:20:22;;;;;;;4.13;2.55;;;;;;;22.17;24.76;99305.34;6184048;23;20095;-93
2023/10/08 08:22:54;;;;;;;7.60;2.10;;;;;;;22.38;24.73;99329.84;6218802;23;20000;-92
2023/10/08 08:28:16;;;;;;;4.25;2.17;;;;;;;22.38;25.15;99294.97;6153432;23;20001;-93
2023/10/08 08:30:46;;;;;;;4.75;2.47;;;;;;;22.51;25.14;99294.94;6173199;23;20015;-90
2023/10/08 08:33:13;;;;;;;5.55;2.13;;;;;;;22.68;24.88;99302.03;6173187;23;20080;-92
2023/10/08 08:35:41;;;;;;;5.53;2.30;;;;;;;22.83;24.74;99290.31;6169814;23;20009;-92
2023/10/08 08:38:08;;;;;;;9.38;2.53;;;;;;;22.91;24.63;99281.09;6172977;23;20000;-91
2023/10/08 08:40:36;;;;;;;6.05;2.42;;;;;;;23.09;24.09;99295.28;6170796;23;19996;-92
2023/10/08 08:43:20;;;;;;;4.47;2.15;;;;;;;23.28;24.46;99289.09;6144612;23;20009;-92
2023/10/08 08:45:56;;;;;;;9.40;2.65;;;;;;;23.23;24.99;99261.09;6171907;23;20016;-91
2023/10/08 08:48:44;;;;;;;7.65;3.35;;;;;;;23.45;24.30;99287.13;6201221;23;20035;-96
2023/10/08 08:51:13;;;;;;;7.70;2.30;;;;;;;23.44;24.29;99272.59;6204464;23;20000;-96
2023/10/08 08:54:11;;;;;;;5.95;2.22;;;;;;;23.44;24.02;99253.34;6149890;23;20406;-95
2023/10/08 09:00:08;;;;;;;;;;;;;;;;;;;;;
2023/10/08 09:02:59;;;;;;;;;;;;;;;;;;;;;
2023/10/08 09:06:00;;;;;;;;;;;;;;;;;;;;;
2023/10/08 09:09:00;;;;;;;15.23;2.28;;;;;;;24.14;24.19;99287.50;6202227;23;20047;-96
2023/10/08 09:11:42;;;;;;;15.70;2.92;;;;;;;24.10;24.72;99253.63;6131363;23;20085;-95
2023/10/08 09:14:22;;;;;;;;;;;;;;;;;;;;;
2023/10/08 09:17:51;;;;;;;;;;;;;;;;;;;;;
2023/10/08 09:20:47;;;;;;;6.38;2.28;;;;;;;24.29;24.85;99266.56;6014278;23;20031;-91
2023/10/08 09:23:17;;;;;;;7.22;2.10;;;;;;;24.26;24.92;99257.09;5957074;23;20038;-90
2023/10/08 09:26:02;;;;;;;7.78;2.40;;;;;;;24.29;25.07;99237.09;6095553;23;20014;-93
2023/10/08 09:28:54;;;;;;;6.03;2.05;;;;;;;24.39;25.01;99264.00;6107322;23;20014;-93
2023/10/08 09:31:23;;;;;;;8.13;2.20;;;;;;;24.27;25.62;99244.13;6085890;23;20001;-89
2023/10/08 09:33:57;;;;;;;13.75;2.90;;;;;;;24.36;25.37;99236.41;6081201;23;20014;-90
2023/10/08 09:36:31;;;;;;;14.32;2.50;;;;;;;24.50;25.98;99264.25;6080206;23;20085;-90
2023/10/08 09:39:23;;;;;;;9.00;2.10;;;;;;;24.41;25.42;99245.19;6107404;23;20060;-90
2023/10/08 09:41:50;;;;;;;;;;;;;;;24.57;24.66;99241.56;6107205;23;20421;-92
2023/10/08 09:44:23;;;;;;;5.82;2.40;;;;;;;24.49;24.73;99242.59;6129777;23;20271;-91
2023/10/08 09:47:01;;;;;;;11.38;2.67;;;;;;;24.56;24.43;99237.22;6058695;23;20018;-90
2023/10/08 09:50:07;;;;;;;;;;;;;;;;;;;;;
2023/10/08 09:53:10;;;;;;;14.88;2.70;;;;;;;24.67;25.14;99238.19;6102187;23;20077;-91
2023/10/08 09:55:39;;;;;;;14.60;2.83;;;;;;;24.60;25.30;99214.09;6092991;23;20037;-91
2023/10/08 09:58:25;;;;;;;10.52;2.67;;;;;;;24.74;24.59;99213.56;6080089;23;20025;-91
2023/10/08 10:00:58;;;;;;;8.85;2.58;;;;;;;24.64;25.08;99185.84;6109007;23;20006;-90
2023/10/08 10:03:36;;;;;;;6.00;2.58;;;;;;;24.74;25.20;99193.50;6130313;23;19986;-91
2023/10/08 10:06:09;;;;;;;8.68;2.30;;;;;;;24.78;24.85;99194.34;6059848;23;20002;-91
2023/10/08 10:08:35;;;;;;;14.80;2.63;;;;;;;24.89;25.58;99172.47;6106785;23;20009;-92
2023/10/08 10:11:01;;;;;;;16.77;2.83;;;;;;;24.92;25.06;99174.47;6106381;23;20048;-95
2023/10/08 10:13:41;;;;;;;8.77;2.42;;;;;;;24.95;25.51;99182.00;6084777;23;20005;-95
2023/10/08 10:16:07;;;;;;;10.07;2.53;;;;;;;25.04;25.45;99181.75;6060152;23;20061;-92
2023/10/08 10:21:37;;;;;;;8.80;2.50;;;;;;;25.17;24.86;99174.84;6095237;23;20006;-93
2023/10/08 10:24:05;;;;;;;12.20;2.65;;;;;;;25.18;24.54;99160.72;6081896;23;20090;-91
2023/10/08 10:26:53;;;;;;;12.02;2.92;;;;;;;25.31;25.26;99179.81;6080673;23;20006;-91
2023/10/08 10:30:04;;;;;;;;;;;;;;;;;;;;;
2023/10/08 10:33:11;;;;;;;;;;;;;;;25.49;24.38;99164.31;6112268;23;20033;-91
2023/10/08 10:35:50;;;;;;;10.32;2.50;;;;;;;25.57;24.53;99157.72;6125891;23;19913;-91
2023/10/08 10:38:36;;;;;;;8.80;3.03;;;;;;;25.55;25.38;99151.00;6087632;23;20010;-92
2023/10/08 10:41:08;;;;;;;10.88;2.30;;;;;;;25.44;25.14;99128.78;6059354;23;20089;-92
2023/10/08 10:43:35;;;;;;;13.27;2.80;;;;;;;25.46;25.02;99120.94;6082898;23;20005;-90
2023/10/08 10:49:52;;;;;;;6.90;2.72;;;;;;;25.73;25.32;99157.53;6089916;23;20033;-91
2023/10/08 10:51:49;;;;;;;9.15;2.97;;;;;;;25.70;24.77;99146.44;6093103;23;20022;-91
2023/10/08 10:54:49;;;;;;;7.85;2.28;;;;;;;25.73;24.99;99126.38;6162011;23;20051;-91
2023/10/08 10:57:17;;;;;;;8.32;2.67;;;;;;;26.03;25.32;99151.19;6188725;23;19999;-91
2023/10/08 10:59:53;;;;;;;7.35;2.47;;;;;;;26.06;24.92;99124.78;6170360;23;20470;-92
2023/10/08 11:03:06;;;;;;;11.15;2.95;;;;;;;26.23;23.91;99106.81;6171479;23;20079;-91
2023/10/08 11:06:06;;;;;;;9.27;3.17;;;;;;;26.47;24.13;99113.75;6189022;23;20004;-93
2023/10/08 11:11:51;;;;;;;13.20;2.85;;;;;;;26.42;24.25;99093.59;6171708;23;20016;-92
2023/10/08 11:14:42;;;;;;;7.70;2.75;;;;;;;26.46;23.69;99090.06;6160773;23;20092;-90
2023/10/08 11:17:59;;;;;;;;;;;;;;;;;;;;;
2023/10/08 11:20:29;;;;;;;13.90;3.40;;;;;;;26.61;23.43;99100.06;6204346;23;20016;-91
2023/10/08 11:23:38;;;;;;;8.77;2.83;;;;;;;26.48;24.19;99102.31;6196105;23;20005;-92
2023/10/08 11:26:08;;;;;;;12.90;2.80;;;;;;;26.23;23.39;99095.78;6221955;23;19991;-92
2023/10/08 11:28:50;;;;;;;11.98;2.85;;;;;;;26.21;24.37;99115.50;6146016;23;19997;-92
2023/10/08 11:31:19;;;;;;;11.10;2.92;;;;;;;25.92;24.91;99082.09;6193704;23;20012;-91
2023/10/08 11:33:54;;;;;;;10.32;2.38;;;;;;;25.75;25.89;99082.66;6171450;23;19996;-90
2023/10/08 11:36:24;;;;;;;9.55;2.55;;;;;;;25.57;26.25;99090.75;6194112;23;20004;-90
2023/10/08 11:39:07;;;;;;;14.83;2.50;;;;;;;25.57;25.88;99091.53;6145531;23;20035;-91
2023/10/08 11:41:49;;;;;;;9.02;2.58;;;;;;;25.56;26.68;99078.91;6149092;23;20231;-93
2023/10/08 11:44:30;;;;;;;23.08;2.75;;;;;;;25.71;26.60;99088.16;6167773;23;20071;-92
2023/10/08 11:47:10;;;;;;;16.02;3.08;;;;;;;25.74;26.50;99078.34;6195082;23;20119;-94
2023/10/08 11:49:57;;;;;;;;;;;;;;;;;;;;;
2023/10/08 11:52:35;;;;;;;19.00;3.22;;;;;;;25.64;26.60;99084.53;6195752;23;20083;-91
2023/10/08 11:55:01;;;;;;;19.77;3.55;;;;;;;25.56;26.69;99076.16;6131550;23;20004;-94
2023/10/08 11:57:30;;;;;;;15.55;3.22;;;;;;;25.65;26.41;99053.00;6188840;23;20024;-90
2023/10/08 11:59:57;;;;;;;16.42;3.35;;;;;;;25.81;26.61;99064.59;6193378;23;20035;-92
2023/10/08 12:02:34;;;;;;;6.70;2.65;;;;;;;25.86;26.16;99071.75;6143390;23;20004;-91
2023/10/08 12:05:33;;;;;;;15.70;2.70;;;;;;;25.85;26.24;99051.66;6148724;23;20000;-92
2023/10/08 12:07:59;;;;;;;15.52;3.10;;;;;;;26.01;25.68;99060.50;6194697;23;20005;-92
2023/10/08 12:10:31;;;;;;;19.55;3.00;;;;;;;26.01;26.08;99041.19;6167227;23;20001;-92
2023/10/08 12:12:59;;;;;;;15.68;2.50;;;;;;;26.14;25.84;99052.72;6144671;23;20405;-91
2023/10/08 12:15:34;;;;;;;15.82;2.85;;;;;;;26.20;25.67;99042.91;6144864;23;20001;-92
2023/10/08 12:18:27;;;;;;;10.00;2.58;;;;;;;26.23;25.89;99032.28;6148863;23;20036;-92
2023/10/08 12:20:53;;;;;;;10.48;2.60;;;;;;;26.35;25.75;99048.56;6151514;23;20324;-94
2023/10/08 12:23:25;;;;;;;12.25;2.28;;;;;;;26.37;25.50;99058.03;6143769;23;20431;-92
2023/10/08 12:26:15;;;;;;;;;;;;;;;;;;;;;
2023/10/08 12:28:45;;;;;;;17.75;2.88;;;;;;;26.22;25.64;99056.34;6173935;23;20075;-92
2023/10/08 12:31:34;;;;;;;;;;;;;;;;;;;;;
2023/10/08 12:34:11;;;;;;;8.38;2.55;;;;;;;26.21;26.02;99044.53;6195411;23;20019;-92
2023/10/08 12:36:37;;;;;;;9.60;3.00;;;;;;;26.44;25.60;99067.56;6167333;23;20063;-90
2023/10/08 12:39:09;;;;;;;22.35;4.70;;;;;;;26.40;25.40;99064.78;6167341;23;20043;-91
2023/10/08 12:41:38;;;;;;;11.07;3.13;;;;;;;26.52;25.79;99072.75;6194526;23;20100;-89
2023/10/08 12:44:07;;;;;;;16.88;3.15;;;;;;;26.39;26.14;99049.38;6109149;23;19989;-91
2023/10/08 12:46:36;;;;;;;18.70;3.92;;;;;;;26.44;25.60;99065.59;6108855;23;20009;-91
2023/10/08 12:49:02;;;;;;;17.42;2.80;;;;;;;26.39;25.59;99060.41;6093478;23;20045;-91
2023/10/08 12:51:33;;;;;;;13.40;2.95;;;;;;;26.34;25.79;99047.00;6101489;23;20057;-91
2023/10/08 12:54:06;;;;;;;21.15;4.55;;;;;;;26.34;25.73;99053.28;6106792;23;20054;-90
2023/10/08 12:56:35;;;;;;;14.23;4.38;;;;;;;26.36;25.95;99039.91;6157673;23;20009;-90
2023/10/08 12:59:06;;;;;;;15.90;3.65;;;;;;;26.28;26.56;99029.97;6133312;23;20040;-90
2023/10/08 13:01:32;;;;;;;15.93;3.50;;;;;;;26.27;26.31;99039.41;6133228;23;20001;-90
2023/10/08 13:04:03;;;;;;;13.70;3.92;;;;;;;26.26;26.09;99024.06;6109570;23;20040;-91
2023/10/08 13:06:36;;;;;;;11.55;2.95;;;;;;;26.29;25.93;99044.56;6134335;23;20009;-91
2023/10/08 13:09:09;;;;;;;7.75;2.80;;;;;;;26.18;25.55;99039.75;6157735;23;20009;-91
2023/10/08 13:11:42;;;;;;;17.45;2.55;;;;;;;26.22;25.48;99039.78;6134404;23;20016;-92
2023/10/08 13:14:08;;;;;;;9.90;2.20;;;;;;;26.26;25.49;99037.06;6143301;23;20008;-91
2023/10/08 13:16:39;;;;;;;8.13;2.53;;;;;;;26.25;26.07;99038.22;6169726;23;20003;-91
2023/10/08 13:19:08;;;;;;;11.27;3.15;;;;;;;26.34;26.29;99045.00;6146985;23;20016;-91
2023/10/08 13:21:33;;;;;;;14.68;2.63;;;;;;;26.16;26.15;99042.09;6171429;23;20075;-91
2023/10/08 13:24:00;;;;;;;15.48;3.67;;;;;;;26.18;26.08;99037.00;6194088;23;20024;-92
2023/10/08 13:26:32;;;;;;;9.27;3.90;;;;;;;26.27;25.73;99038.63;6145717;23;20008;-92
2023/10/08 13:28:58;;;;;;;14.30;3.75;;;;;;;26.16;25.51;99027.50;6146219;23;20039;-93
2023/10/08 13:31:27;;;;;;;17.40;3.88;;;;;;;26.25;25.60;99038.22;6145897;23;20004;-91